createdAt,value
2022-08-26T00:02:55.213Z,20.7
2022-08-26T00:07:03.092Z,20.8
2022-08-26T00:11:10.957Z,20.7
2022-08-26T00:13:14.882Z,20.7
2022-08-26T00:21:33.477Z,20.8
2022-08-26T00:23:37.402Z,20.8
2022-08-26T00:25:42.484Z,20.9
2022-08-26T00:27:45.290Z,20.9
2022-08-26T00:29:49.222Z,20.9
2022-08-26T00:31:56.039Z,20.9
2022-08-26T00:33:59.988Z,20.9
2022-08-26T00:36:03.887Z,20.9
2022-08-26T00:38:07.811Z,20.9
2022-08-26T00:40:11.780Z,20.8
2022-08-26T00:42:15.674Z,20.9
2022-08-26T00:44:19.618Z,20.9
2022-08-26T00:46:26.431Z,20.9
2022-08-26T00:48:31.730Z,20.8
2022-08-26T00:50:34.271Z,20.7
2022-08-26T00:52:58.229Z,20.8
2022-08-26T00:55:02.202Z,20.7
2022-08-26T00:57:08.524Z,20.7
2022-08-26T00:59:12.911Z,20.8
2022-08-26T01:01:16.990Z,20.9
2022-08-26T01:03:20.781Z,20.9
2022-08-26T01:05:24.700Z,20.9
2022-08-26T01:07:30.282Z,20.9
2022-08-26T01:09:32.568Z,20.9
2022-08-26T01:11:36.518Z,20.9
2022-08-26T01:13:43.288Z,20.9
2022-08-26T01:15:47.209Z,21
2022-08-26T01:17:51.144Z,20.9
2022-08-26T01:19:55.113Z,21
2022-08-26T01:21:59.064Z,20.9
2022-08-26T01:24:02.976Z,20.9
2022-08-26T01:28:13.679Z,20.9
2022-08-26T01:32:21.539Z,20.9
2022-08-26T01:34:25.459Z,20.9
2022-08-26T01:36:29.392Z,20.9
2022-08-26T01:38:33.329Z,20.9
2022-08-26T01:40:37.246Z,20.9
2022-08-26T01:42:44.049Z,20.8
2022-08-26T01:44:48.068Z,20.8
2022-08-26T01:46:51.904Z,20.8
2022-08-26T01:47:57.164Z,20.8
2022-08-26T01:49:59.238Z,20.7
2022-08-26T01:52:03.154Z,20.7
2022-08-26T01:54:07.059Z,20.7
2022-08-26T01:56:13.843Z,20.7
2022-08-26T01:58:17.784Z,20.7
2022-08-26T02:00:21.696Z,20.7
2022-08-26T02:02:25.636Z,20.7
2022-08-26T02:04:29.632Z,20.7
2022-08-26T02:06:33.473Z,20.7
2022-08-26T02:08:37.397Z,20.6
2022-08-26T02:10:44.162Z,20.6
2022-08-26T02:12:48.102Z,20.5
2022-08-26T02:14:52.044Z,20.5
2022-08-26T02:16:55.965Z,20.5
2022-08-26T02:21:03.824Z,20.4
2022-08-26T02:33:30.265Z,20.2
2022-08-26T02:35:34.200Z,20.2
2022-08-26T02:37:38.161Z,20.1
2022-08-26T02:39:44.953Z,20.1
2022-08-26T02:41:48.881Z,20
2022-08-26T02:43:52.808Z,20
2022-08-26T02:44:56.179Z,20.1
2022-08-26T02:47:00.188Z,20.1
2022-08-26T02:49:04.066Z,20
2022-08-26T02:51:07.991Z,20
2022-08-26T02:53:14.789Z,19.9
2022-08-26T02:55:18.697Z,19.9
2022-08-26T02:57:22.640Z,19.9
2022-08-26T02:59:26.551Z,19.9
2022-08-26T03:01:30.535Z,19.9
2022-08-26T03:03:34.446Z,19.8
2022-08-26T03:05:38.390Z,19.9
2022-08-26T03:09:49.099Z,19.8
2022-08-26T03:13:56.966Z,19.8
2022-08-26T03:18:04.841Z,19.9
2022-08-26T03:20:08.776Z,19.9
2022-08-26T03:22:15.547Z,19.9
2022-08-26T03:24:19.519Z,19.9
2022-08-26T03:26:23.417Z,20
2022-08-26T03:28:27.419Z,19.9
2022-08-26T03:32:35.233Z,20
2022-08-26T03:34:39.172Z,20
2022-08-26T03:36:45.953Z,19.9
2022-08-26T03:38:49.891Z,19.9
2022-08-26T03:40:53.840Z,19.9
2022-08-26T03:41:57.213Z,19.8
2022-08-26T03:44:01.983Z,19.8
2022-08-26T03:46:05.152Z,19.8
2022-08-26T03:52:19.735Z,19.7
2022-08-26T03:54:23.684Z,19.7
2022-08-26T04:00:35.502Z,19.7
2022-08-26T04:04:46.222Z,19.6
2022-08-26T04:15:05.899Z,19.7
2022-08-26T04:19:16.662Z,19.7
2022-08-26T04:23:24.504Z,19.8
2022-08-26T04:29:36.300Z,19.8
2022-08-26T04:31:40.257Z,19.8
2022-08-26T04:40:18.943Z,19.8
2022-08-26T04:44:26.619Z,19.9
2022-08-26T04:46:33.414Z,19.8
2022-08-26T04:48:37.316Z,19.8
2022-08-26T04:52:45.212Z,19.9
2022-08-26T04:58:57.004Z,19.9
2022-08-26T05:01:03.792Z,19.9
2022-08-26T05:07:15.592Z,20
2022-08-26T05:09:19.524Z,20
2022-08-26T05:11:23.442Z,20
2022-08-26T05:13:27.405Z,20
2022-08-26T05:15:34.170Z,20
2022-08-26T05:17:38.110Z,20
2022-08-26T05:19:42.747Z,20.1
2022-08-26T05:21:45.981Z,20.1
2022-08-26T05:25:58.937Z,20.2
2022-08-26T05:27:58.299Z,20.2
2022-08-26T05:30:04.626Z,20.2
2022-08-26T05:32:08.490Z,20.2
2022-08-26T05:34:12.420Z,20.3
2022-08-26T05:35:15.793Z,20.3
2022-08-26T05:37:19.729Z,20.4
2022-08-26T05:39:23.654Z,20.3
2022-08-26T05:41:27.589Z,20.3
2022-08-26T05:43:34.368Z,20.4
2022-08-26T05:45:42.311Z,20.3
2022-08-26T05:47:43.757Z,20.3
2022-08-26T05:49:51.372Z,20.4
2022-08-26T05:51:51.583Z,20.4
2022-08-26T05:53:55.861Z,20.4
2022-08-26T05:55:59.438Z,20.4
2022-08-26T05:58:06.218Z,20.4
2022-08-26T06:00:10.202Z,20.5
2022-08-26T06:02:14.097Z,20.4
2022-08-26T06:04:18.020Z,20.4
2022-08-26T06:06:28.108Z,20.4
2022-08-26T06:08:25.885Z,20.4
2022-08-26T06:12:36.568Z,20.4
2022-08-26T06:14:40.495Z,20.4
2022-08-26T06:16:44.496Z,20.4
2022-08-26T06:18:48.349Z,20.4
2022-08-26T06:20:57.310Z,20.5
2022-08-26T06:22:56.222Z,20.5
2022-08-26T06:25:00.156Z,20.6
2022-08-26T06:27:06.905Z,20.6
2022-08-26T06:29:10.850Z,20.5
2022-08-26T06:31:14.858Z,20.5
2022-08-26T06:32:18.162Z,20.5
2022-08-26T06:34:22.204Z,20.4
2022-08-26T06:36:26.055Z,20.5
2022-08-26T06:44:44.926Z,20.8
2022-08-26T06:50:56.377Z,20.8
2022-08-26T06:53:00.294Z,21
2022-08-26T06:59:14.906Z,21.1
2022-08-26T07:05:26.736Z,21.3
2022-08-26T07:07:30.639Z,21.5
2022-08-26T07:09:37.384Z,21.4
2022-08-26T07:11:41.313Z,21.4
2022-08-26T07:13:45.241Z,21.5
2022-08-26T07:15:49.184Z,21.5
2022-08-26T07:17:53.091Z,21.5
2022-08-26T07:19:57.006Z,21.5
2022-08-26T07:22:00.924Z,21.7
2022-08-26T07:24:07.668Z,21.7
2022-08-26T07:26:11.609Z,21.7
2022-08-26T07:28:15.539Z,21.7
2022-08-26T07:29:18.902Z,21.8
2022-08-26T07:31:22.907Z,21.9
2022-08-26T07:33:26.747Z,21.9
2022-08-26T07:35:30.668Z,21.6
2022-08-26T07:37:39.363Z,21.5
2022-08-26T07:39:41.317Z,21.6
2022-08-26T07:41:45.221Z,21.9
2022-08-26T07:43:49.142Z,21.8
2022-08-26T07:47:56.971Z,22.5
2022-08-26T07:50:00.881Z,22.1
2022-08-26T07:52:07.647Z,21.9
2022-08-26T07:54:11.559Z,21.9
2022-08-26T07:56:15.452Z,21.9
2022-08-26T07:58:19.353Z,21.9
2022-08-26T08:00:23.258Z,22
2022-08-26T08:02:27.192Z,22
2022-08-26T08:04:31.072Z,22.1
2022-08-26T08:06:37.831Z,22
2022-08-26T08:08:41.748Z,22
2022-08-26T08:10:48.812Z,22.1
2022-08-26T08:12:49.544Z,22.4
2022-08-26T08:14:53.467Z,22.4
2022-08-26T08:16:57.528Z,22.4
2022-08-26T08:19:01.246Z,22.5
2022-08-26T08:21:19.963Z,22.6
2022-08-26T08:23:11.908Z,22.5
2022-08-26T08:25:15.820Z,22.6
2022-08-26T08:27:33.921Z,22.1
2022-08-26T08:29:37.808Z,22
2022-08-26T08:31:56.954Z,21.9
2022-08-26T08:33:48.454Z,21.7
2022-08-26T08:35:52.335Z,21.7
2022-08-26T08:38:06.838Z,21.7
2022-08-26T08:40:00.798Z,21.6
2022-08-26T08:44:08.555Z,21.8
2022-08-26T08:46:12.521Z,21.9
2022-08-26T08:48:19.171Z,21.7
2022-08-26T08:50:23.084Z,21.7
2022-08-26T08:52:26.998Z,21.8
2022-08-26T08:54:30.897Z,21.8
2022-08-26T08:56:34.809Z,21.9
2022-08-26T08:58:38.727Z,22
2022-08-26T09:00:42.637Z,22.1
2022-08-26T09:02:49.411Z,21.7
2022-08-26T09:04:53.301Z,21.7
2022-08-26T09:09:01.095Z,21.9
2022-08-26T09:13:08.903Z,21.7
2022-08-26T09:15:12.823Z,21.7
2022-08-26T09:17:19.583Z,21.4
2022-08-26T09:19:23.506Z,21.4
2022-08-26T09:21:27.421Z,21.6
2022-08-26T09:22:30.765Z,21.5
2022-08-26T09:24:38.359Z,21.5
2022-08-26T09:26:38.564Z,21.5
2022-08-26T09:28:42.488Z,21.6
2022-08-26T09:30:49.271Z,21.6
2022-08-26T09:32:55.892Z,21.7
2022-08-26T09:34:57.074Z,21.7
2022-08-26T09:37:00.952Z,21.8
2022-08-26T09:39:04.856Z,21.9
2022-08-26T09:41:08.860Z,21.8
2022-08-26T09:43:12.686Z,21.7
2022-08-26T09:45:19.424Z,21.8
2022-08-26T09:47:23.333Z,21.9
2022-08-26T09:49:27.231Z,21.9
2022-08-26T09:51:31.154Z,21.9
2022-08-26T09:53:35.039Z,21.8
2022-08-26T09:55:38.977Z,21.9
2022-08-26T09:57:42.863Z,21.9
2022-08-26T09:59:49.614Z,21.8
2022-08-26T10:01:53.644Z,21.8
2022-08-26T10:03:57.510Z,21.5
2022-08-26T10:06:01.365Z,21.5
2022-08-26T10:10:09.183Z,21.8
2022-08-26T10:12:13.079Z,21.8
2022-08-26T10:14:20.234Z,21.9
2022-08-26T10:16:23.814Z,21.9
2022-08-26T10:18:30.718Z,22.2
2022-08-26T10:19:41.836Z,22.4
2022-08-26T10:21:34.902Z,22.6
2022-08-26T10:25:42.737Z,22.9
2022-08-26T10:27:53.447Z,22.7
2022-08-26T10:29:53.470Z,22.6
2022-08-26T10:34:01.152Z,23
2022-08-26T10:36:05.053Z,23.1
2022-08-26T10:38:09.059Z,23
2022-08-26T10:40:12.969Z,22.8
2022-08-26T10:42:19.693Z,23
2022-08-26T10:44:23.508Z,22.9
2022-08-26T10:46:27.609Z,22.6
2022-08-26T10:48:35.334Z,22.6
2022-08-26T10:50:35.180Z,22.6
2022-08-26T10:54:42.961Z,22.5
2022-08-26T10:56:49.692Z,22.6
2022-08-26T10:58:53.613Z,22.6
2022-08-26T11:00:57.576Z,22.9
2022-08-26T11:03:01.402Z,23.1
2022-08-26T11:05:05.296Z,23.1
2022-08-26T11:07:09.193Z,23
2022-08-26T11:09:13.076Z,22.8
2022-08-26T11:11:19.810Z,22.7
2022-08-26T11:13:23.723Z,22.8
2022-08-26T11:15:27.614Z,22.8
2022-08-26T11:16:31.002Z,22.6
2022-08-26T11:18:34.840Z,22.4
2022-08-26T11:20:39.308Z,22.4
2022-08-26T11:22:47.942Z,22.6
2022-08-26T11:24:49.376Z,22.8
2022-08-26T11:26:56.222Z,22.8
2022-08-26T11:35:08.860Z,22.3
2022-08-26T11:37:12.785Z,22.4
2022-08-26T11:39:19.470Z,22.9
2022-08-26T11:41:23.363Z,23.1
2022-08-26T11:43:30.300Z,23.3
2022-08-26T11:45:32.791Z,23.5
2022-08-26T11:47:36.515Z,22.9
2022-08-26T11:49:41.770Z,22.9
2022-08-26T11:51:48.122Z,22.6
2022-08-26T11:53:51.035Z,22.4
2022-08-26T11:55:54.932Z,22.5
2022-08-26T11:57:58.810Z,22.6
2022-08-26T12:02:06.597Z,22.8
2022-08-26T12:04:10.537Z,22.8
2022-08-26T12:06:14.444Z,22.9
2022-08-26T12:08:21.088Z,22.6
2022-08-26T12:10:24.990Z,22.4
2022-08-26T12:12:31.803Z,22.5
2022-08-26T12:14:58.539Z,22.4
2022-08-26T12:17:02.515Z,22.4
2022-08-26T12:19:06.318Z,22.5
2022-08-26T12:21:13.055Z,22.7
2022-08-26T12:23:16.944Z,22.8
2022-08-26T12:25:20.835Z,22.9
2022-08-26T12:27:24.710Z,22.4
2022-08-26T12:29:28.700Z,22.2
2022-08-26T12:31:32.589Z,22.2
2022-08-26T12:37:47.045Z,22.4
2022-08-26T12:39:51.012Z,22.4
2022-08-26T12:41:54.914Z,22.3
2022-08-26T12:43:58.716Z,22.3
2022-08-26T12:46:02.717Z,22.1
2022-08-26T12:50:13.289Z,21.7
2022-08-26T12:52:17.186Z,21.7
2022-08-26T12:54:21.056Z,21.7
2022-08-26T12:56:25.008Z,21.8
2022-08-26T12:58:28.916Z,22
2022-08-26T13:00:32.964Z,21.9
2022-08-26T13:04:43.456Z,21.8
2022-08-26T13:06:47.333Z,21.9
2022-08-26T13:08:51.234Z,21.9
2022-08-26T13:14:02.469Z,21.6
2022-08-26T13:16:06.411Z,21.6
2022-08-26T13:18:13.119Z,21.8
2022-08-26T13:20:17.034Z,21.7
2022-08-26T13:22:20.988Z,21.9
2022-08-26T13:24:25.075Z,22
2022-08-26T13:26:28.741Z,22
2022-08-26T13:32:43.306Z,21.8
2022-08-26T13:34:51.029Z,21.7
2022-08-26T13:36:51.149Z,21.9
2022-08-26T13:38:54.995Z,21.9
2022-08-26T13:40:58.954Z,22
2022-08-26T13:43:02.930Z,22.2
2022-08-26T13:45:06.881Z,22.4
2022-08-26T13:47:13.591Z,22.4
2022-08-26T13:49:17.366Z,22.2
2022-08-26T13:51:21.307Z,22.4
2022-08-26T13:53:25.182Z,22.3
2022-08-26T13:55:29.114Z,22.3
2022-08-26T13:57:32.983Z,22.7
2022-08-26T13:59:36.913Z,22.5
2022-08-26T14:01:43.661Z,22.2
2022-08-26T14:05:51.464Z,22.1
2022-08-26T14:06:54.881Z,22.1
2022-08-26T14:08:58.725Z,22.3
2022-08-26T14:11:02.647Z,22.4
2022-08-26T14:15:13.279Z,22.3
2022-08-26T14:17:17.182Z,22.3
2022-08-26T14:19:21.238Z,22.3
2022-08-26T14:21:24.923Z,22.4
2022-08-26T14:23:28.856Z,22.4
2022-08-26T14:25:32.763Z,22.4
2022-08-26T14:27:36.625Z,22.5
2022-08-26T14:29:43.362Z,22.3
2022-08-26T14:31:47.377Z,22
2022-08-26T14:33:51.186Z,21.6
2022-08-26T14:35:55.078Z,21.3
2022-08-26T14:37:58.942Z,21.2
2022-08-26T14:42:06.780Z,21
2022-08-26T14:44:13.488Z,21.1
2022-08-26T14:46:17.418Z,21.1
2022-08-26T14:48:21.287Z,21.2
2022-08-26T14:50:25.192Z,21.3
2022-08-26T14:52:29.127Z,21.6
2022-08-26T14:54:33.204Z,21.6
2022-08-26T14:56:36.938Z,21.7
2022-08-26T14:58:43.675Z,21.6
2022-08-26T15:00:47.603Z,21.6
2022-08-26T15:02:51.648Z,21.5
2022-08-26T15:03:54.825Z,21.5
2022-08-26T15:05:58.741Z,21.4
2022-08-26T15:08:02.727Z,21.5
2022-08-26T15:12:13.360Z,21.5
2022-08-26T15:14:19.486Z,21.4
2022-08-26T15:16:21.202Z,21.5
2022-08-26T15:18:25.073Z,21.7
2022-08-26T15:20:28.974Z,21.7
2022-08-26T15:22:32.893Z,21.6
2022-08-26T15:26:43.552Z,21.2
2022-08-26T15:28:47.457Z,21.2
2022-08-26T15:34:59.166Z,21.3
2022-08-26T15:37:03.112Z,21.4
2022-08-26T15:39:06.981Z,21.5
2022-08-26T15:41:13.776Z,21.3
2022-08-26T15:43:28.143Z,21.2
2022-08-26T15:45:26.180Z,21.3
2022-08-26T15:47:25.463Z,21.3
2022-08-26T15:49:29.409Z,21.5
2022-08-26T15:51:33.275Z,21.5
2022-08-26T15:53:37.182Z,21.6
2022-08-26T15:55:44.009Z,21.5
2022-08-26T15:59:51.797Z,21.6
2022-08-26T16:02:15.691Z,21.2
2022-08-26T16:06:23.457Z,21.4
2022-08-26T16:08:30.253Z,21.4
2022-08-26T16:10:34.125Z,21.3
2022-08-26T16:12:38.074Z,21.2
2022-08-26T16:14:41.962Z,21.2
2022-08-26T16:16:46.056Z,21.2
2022-08-26T16:18:49.772Z,21.2
2022-08-26T16:21:06.533Z,21.3
2022-08-26T16:23:00.463Z,21.4
2022-08-26T16:25:04.374Z,21.4
2022-08-26T16:27:08.289Z,21.5
2022-08-26T16:29:12.235Z,21.3
2022-08-26T16:31:16.210Z,21.1
2022-08-26T16:37:30.721Z,21.2
2022-08-26T16:39:34.607Z,21.1
2022-08-26T16:41:38.562Z,21.1
2022-08-26T16:43:42.458Z,21
2022-08-26T16:45:46.368Z,21.3
2022-08-26T16:47:50.356Z,21.2
2022-08-26T16:49:54.200Z,21.1
2022-08-26T16:52:00.950Z,20.8
2022-08-26T16:54:04.843Z,20.7
2022-08-26T16:56:08.774Z,20.6
2022-08-26T16:57:12.127Z,20.5
2022-08-26T16:59:16.031Z,20.6
2022-08-26T17:01:20.002Z,20.6
2022-08-26T17:03:23.906Z,20.6
2022-08-26T17:05:30.638Z,20.6
2022-08-26T17:07:34.576Z,20.6
2022-08-26T17:09:38.487Z,20.7
2022-08-26T17:15:50.274Z,20.6
2022-08-26T17:17:54.137Z,20.6
2022-08-26T17:20:00.923Z,20.4
2022-08-26T17:22:05.694Z,20.5
2022-08-26T17:24:08.729Z,20.4
2022-08-26T17:26:12.741Z,20.4
2022-08-26T17:32:24.427Z,20.4
2022-08-26T17:36:35.142Z,20.4
2022-08-26T17:40:42.959Z,20.3
2022-08-26T17:42:48.405Z,20.2
2022-08-26T17:44:52.310Z,20.1
2022-08-26T17:49:03.834Z,20
2022-08-26T17:54:15.064Z,19.9
2022-08-26T17:56:18.983Z,19.9
2022-08-26T17:58:23.782Z,19.9
2022-08-26T18:02:33.611Z,19.8
2022-08-26T18:04:37.528Z,19.8
2022-08-26T18:06:41.461Z,19.8
2022-08-26T18:08:45.400Z,19.8
2022-08-26T18:10:49.318Z,19.8
2022-08-26T18:12:53.237Z,19.7
2022-08-26T18:17:03.994Z,19.6
2022-08-26T18:23:15.723Z,19.6
2022-08-26T18:25:19.685Z,19.6
2022-08-26T18:27:23.644Z,19.6
2022-08-26T18:29:27.520Z,19.6
2022-08-26T18:31:34.311Z,19.5
2022-08-26T18:33:38.246Z,19.4
2022-08-26T18:35:42.213Z,19.3
2022-08-26T18:37:46.211Z,19.4
2022-08-26T18:39:50.047Z,19.3
2022-08-26T18:41:53.993Z,19.4
2022-08-26T18:43:57.862Z,19.4
2022-08-26T18:46:04.748Z,19.4
2022-08-26T18:48:08.881Z,19.4
2022-08-26T18:50:12.506Z,19.4
2022-08-26T18:55:23.752Z,19.4
2022-08-26T18:59:34.441Z,19.3
2022-08-26T19:01:38.506Z,19.3
2022-08-26T19:03:42.330Z,19.3
2022-08-26T19:05:46.270Z,19.2
2022-08-26T19:07:50.196Z,19.2
2022-08-26T19:09:54.293Z,19.2
2022-08-26T19:11:58.158Z,19.2
2022-08-26T19:14:04.851Z,19.2
2022-08-26T19:16:08.777Z,19.2
2022-08-26T19:18:12.797Z,19.2
2022-08-26T19:24:25.990Z,19.1
2022-08-26T19:26:28.467Z,19
2022-08-26T19:28:35.207Z,19
2022-08-26T19:30:39.220Z,19
2022-08-26T19:32:43.103Z,19
2022-08-26T19:34:47.004Z,19.1
2022-08-26T19:43:05.692Z,19
2022-08-26T19:47:13.444Z,19
2022-08-26T19:49:43.156Z,19
2022-08-26T19:51:47.100Z,19
2022-08-26T19:55:57.824Z,19
2022-08-26T20:00:05.750Z,19
2022-08-26T20:02:11.075Z,19
2022-08-26T20:04:13.540Z,19
2022-08-26T20:06:17.537Z,18.9
2022-08-26T20:08:22.523Z,18.9
2022-08-26T20:10:28.170Z,18.8
2022-08-26T20:12:32.119Z,18.8
2022-08-26T20:27:07.302Z,18.9
2022-08-26T20:33:14.351Z,18.8
2022-08-26T20:37:22.411Z,18.7
2022-08-26T20:39:28.994Z,18.7
2022-08-26T20:41:32.924Z,18.7
2022-08-26T20:43:36.861Z,18.7
2022-08-26T20:44:40.205Z,18.7
2022-08-26T20:46:44.172Z,18.7
2022-08-26T20:50:52.027Z,18.6
2022-08-26T20:55:02.739Z,18.6
2022-08-26T20:59:10.655Z,18.6
2022-08-26T21:01:14.595Z,18.7
2022-08-26T21:03:18.488Z,18.6
2022-08-26T21:05:22.431Z,18.5
2022-08-26T21:07:29.262Z,18.5
2022-08-26T21:09:33.178Z,18.4
2022-08-26T21:11:37.113Z,18.5
2022-08-26T21:14:01.668Z,18.4
2022-08-26T21:15:45.004Z,18.4
2022-08-26T21:17:48.982Z,18.4
2022-08-26T21:19:52.947Z,18.4
2022-08-26T21:21:59.658Z,18.3
2022-08-26T21:24:03.796Z,18.3
2022-08-26T21:26:07.556Z,18.3
2022-08-26T21:28:11.733Z,18.2
2022-08-26T21:30:15.428Z,18.2
2022-08-26T21:32:19.413Z,18.1
2022-08-26T21:34:23.268Z,18.2
2022-08-26T21:36:30.049Z,18.2
2022-08-26T21:38:34.514Z,18.2
2022-08-26T21:40:37.900Z,18.1
2022-08-26T21:41:41.338Z,18.1
2022-08-26T21:47:53.118Z,18.1
2022-08-26T21:52:03.879Z,18.1
2022-08-26T21:54:10.715Z,18.1
2022-08-26T21:58:15.708Z,18.1
2022-08-26T22:00:19.632Z,18
2022-08-26T22:02:23.604Z,18
2022-08-26T22:06:34.251Z,17.9
2022-08-26T22:08:38.189Z,17.9
2022-08-26T22:10:42.147Z,17.9
2022-08-26T22:12:46.121Z,17.8
2022-08-26T22:14:50.063Z,17.8
2022-08-26T22:16:54.016Z,17.8
2022-08-26T22:19:00.761Z,17.7
2022-08-26T22:21:04.795Z,17.7
2022-08-26T22:23:08.667Z,17.7
2022-08-26T22:25:12.646Z,17.7
2022-08-26T22:27:16.594Z,17.6
2022-08-26T22:29:20.509Z,17.7
2022-08-26T22:31:27.979Z,17.6
2022-08-26T22:38:42.519Z,17.3
2022-08-26T22:40:46.501Z,17.2
2022-08-26T22:44:54.375Z,17.1
2022-08-26T22:47:01.179Z,17
2022-08-26T22:49:05.110Z,16.9
2022-08-26T22:51:09.094Z,16.9
2022-08-26T22:53:12.999Z,16.8
2022-08-26T22:55:17.011Z,16.8
2022-08-26T22:59:24.847Z,16.7
2022-08-26T23:05:39.546Z,16.5
2022-08-26T23:07:43.473Z,16.5
2022-08-26T23:09:47.415Z,16.4
2022-08-26T23:11:51.391Z,16.4
2022-08-26T23:13:55.300Z,16.3
2022-08-26T23:16:02.107Z,16.4
2022-08-26T23:18:06.068Z,16.4
2022-08-26T23:20:10.033Z,16.3
2022-08-26T23:22:13.966Z,16.3
2022-08-26T23:24:17.911Z,16.3
2022-08-26T23:26:21.849Z,16.2
2022-08-26T23:28:25.809Z,16.2
2022-08-26T23:32:36.535Z,16.2
2022-08-26T23:37:10.201Z,16.2
2022-08-26T23:39:15.665Z,16.2
2022-08-26T23:41:19.565Z,16.2
2022-08-26T23:43:26.307Z,16.3
2022-08-26T23:47:34.234Z,16.4
2022-08-26T23:49:38.144Z,16.4
2022-08-26T23:51:42.153Z,16.5
2022-08-26T23:53:46.071Z,16.5
2022-08-26T23:55:49.998Z,16.5
